Time;durP1;ratioP1;P1;durP2;ratioP2;P2;SDS_P1;SDS_P2;PMS_P1;PMS_P2;Temp;Humidity;BMP_temperature;BMP_pressure;BME280_temperature;BME280_humidity;BME280_pressure;Samples;Min_cycle;Max_cycle;Signal;HPM_P1;HPM_P2
2022/06/02 00:00:22;;;;;;;;;;;11.90;61.80;;;;;;5020228;28;20012;-89
2022/06/02 00:02:50;;;;;;;;;;;11.80;61.80;;;;;;5020943;28;19910;-89
2022/06/02 00:05:34;;;;;;;;;;;11.90;61.80;;;;;;5020762;28;19917;-89
2022/06/02 00:08:12;;;;;;;;;;;11.80;61.80;;;;;;5021446;28;19932;-89
2022/06/02 00:10:37;;;;;;;;;;;11.80;62.00;;;;;;5020873;28;19913;-90
2022/06/02 00:13:06;;;;;;;;;;;11.80;61.90;;;;;;5021270;28;19916;-89
2022/06/02 00:15:45;;;;;;;;;;;11.80;61.90;;;;;;5018380;28;19921;-90
2022/06/02 00:18:12;;;;;;;;;;;11.90;61.80;;;;;;5018013;28;19956;-89
2022/06/02 00:20:49;;;;;;;;;;;11.80;61.60;;;;;;5019428;28;19932;-90
2022/06/02 00:23:32;;;;;;;;;;;11.80;61.40;;;;;;5002696;28;19996;-89
2022/06/02 00:26:02;;;;;;;;;;;11.80;61.40;;;;;;5018639;28;19953;-89
2022/06/02 00:28:37;;;;;;;;;;;11.70;61.30;;;;;;5016123;28;19940;-90
2022/06/02 00:31:14;;;;;;;;;;;11.70;61.40;;;;;;5019835;28;19918;-89
2022/06/02 00:33:53;;;;;;;;;;;11.70;61.70;;;;;;5038304;28;19979;-89
2022/06/02 00:36:25;;;;;;;;;;;11.70;61.80;;;;;;5020474;28;19941;-89
2022/06/02 00:38:51;;;;;;;;;;;11.70;61.90;;;;;;5038759;28;20315;-89
2022/06/02 00:41:23;;;;;;;;;;;11.70;61.90;;;;;;5020383;28;20038;-89
2022/06/02 00:44:07;;;;;;;;;;;11.70;62.00;;;;;;5038143;28;19913;-90
2022/06/02 00:46:33;;;;;;;;;;;11.70;62.10;;;;;;5019436;28;20346;-89
2022/06/02 00:49:14;;;;;;;;;;;11.70;62.00;;;;;;5019277;28;19913;-89
2022/06/02 00:51:51;;;;;;;;;;;11.70;61.90;;;;;;5037897;28;20431;-89
2022/06/02 00:57:31;;;;;;;;;;;11.70;61.90;;;;;;5035372;28;19956;-90
2022/06/02 01:00:12;;;;;;;;;;;11.60;61.90;;;;;;5020278;28;19939;-90
2022/06/02 01:03:02;;;;;;;;;;;11.60;61.90;;;;;;5036709;28;19917;-89
2022/06/02 01:05:34;;;;;;;;;;;11.60;61.80;;;;;;5020627;28;20301;-89
2022/06/02 01:08:18;;;;;;;;;;;11.50;61.80;;;;;;5019482;28;19967;-88
2022/06/02 01:10:49;;;;;;;;;;;11.50;61.70;;;;;;5016461;28;19976;-88
2022/06/02 01:13:17;;;;;;;;;;;11.50;61.60;;;;;;5019580;28;19920;-89
2022/06/02 01:15:48;;;;;;;;;;;11.50;61.60;;;;;;5017348;28;19921;-89
2022/06/02 01:18:13;;;;;;;;;;;11.50;61.50;;;;;;5019243;28;19959;-89
2022/06/02 01:20:43;;;;;;;;;;;11.40;61.40;;;;;;5018790;28;19921;-89
2022/06/02 01:23:19;;;;;;;;;;;11.40;61.50;;;;;;5035963;28;19956;-89
2022/06/02 01:26:08;;;;;;;;;;;11.30;61.50;;;;;;5036626;28;19917;-89
2022/06/02 01:28:46;;;;;;;;;;;11.30;61.40;;;;;;4987710;28;19951;-91
2022/06/02 01:31:20;;;;;;;;;;;11.30;61.30;;;;;;5019093;28;19947;-89
2022/06/02 01:33:51;;;;;;;;;;;11.20;61.30;;;;;;5018693;28;19948;-90
2022/06/02 01:36:23;;;;;;;;;;;11.20;61.40;;;;;;5018982;28;19928;-89
2022/06/02 01:38:55;;;;;;;;;;;11.20;61.60;;;;;;5018993;28;19917;-90
2022/06/02 01:41:20;;;;;;;;;;;11.20;61.80;;;;;;5015438;28;19973;-90
2022/06/02 01:43:53;;;;;;;;;;;11.30;61.70;;;;;;5022186;28;20373;-89
2022/06/02 01:46:23;;;;;;;;;;;11.20;61.70;;;;;;5035157;28;19956;-90
2022/06/02 01:49:04;;;;;;;;;;;11.20;61.70;;;;;;5018569;28;20005;-89
2022/06/02 01:51:39;;;;;;;;;;;11.20;61.50;;;;;;5036257;28;19921;-89
2022/06/02 01:54:25;;;;;;;;;;;11.20;61.40;;;;;;5036266;28;19921;-89
2022/06/02 01:57:05;;;;;;;;;;;11.20;61.40;;;;;;5016859;28;19925;-89
2022/06/02 01:59:51;;;;;;;;;;;11.20;61.50;;;;;;5019670;28;20253;-89
2022/06/02 02:02:40;;;;;;;;;;;11.10;61.50;;;;;;5012351;28;19918;-89
2022/06/02 02:05:06;;;;;;;;;;;11.10;61.40;;;;;;5017751;28;19920;-89
2022/06/02 02:07:31;;;;;;;;;;;11.00;61.30;;;;;;5017410;28;19917;-90
2022/06/02 02:10:03;;;;;;;;;;;11.00;61.40;;;;;;5017563;28;19913;-89
2022/06/02 02:12:31;;;;;;;;;;;11.00;61.50;;;;;;5027235;28;20408;-89
2022/06/02 02:15:15;;;;;;;;;;;11.00;61.50;;;;;;5033909;28;19924;-89
2022/06/02 02:17:52;;;;;;;;;;;11.00;61.40;;;;;;5014594;28;20419;-89
2022/06/02 02:20:26;;;;;;;;;;;10.90;61.30;;;;;;5032721;28;19923;-88
2022/06/02 02:23:10;;;;;;;;;;;10.90;61.30;;;;;;5013494;28;19928;-90
2022/06/02 02:25:42;;;;;;;;;;;10.90;61.20;;;;;;5014930;28;20012;-89
2022/06/02 02:28:08;;;;;;;;;;;10.80;61.20;;;;;;5006917;28;20254;-89
2022/06/02 02:30:45;;;;;;;;;;;10.80;61.30;;;;;;5027648;28;19913;-89
2022/06/02 02:33:14;;;;;;;;;;;10.80;61.20;;;;;;5018365;28;20427;-89
2022/06/02 02:35:50;;;;;;;;;;;10.70;61.30;;;;;;5036183;28;19936;-89
2022/06/02 02:38:20;;;;;;;;;;;10.70;61.40;;;;;;5018428;28;20004;-90
2022/06/02 02:40:48;;;;;;;;;;;10.70;61.40;;;;;;5019578;28;19913;-89
2022/06/02 02:43:19;;;;;;;;;;;10.60;61.20;;;;;;5017278;28;19923;-89
2022/06/02 02:45:48;;;;;;;;;;;10.60;61.10;;;;;;5018303;28;19920;-90
2022/06/02 02:48:28;;;;;;;;;;;10.60;61.00;;;;;;5017418;28;20333;-89
2022/06/02 02:50:56;;;;;;;;;;;10.60;60.90;;;;;;5017348;28;19913;-89
2022/06/02 02:53:31;;;;;;;;;;;10.50;60.90;;;;;;5020109;28;19931;-90
2022/06/02 02:56:17;;;;;;;;;;;10.50;60.90;;;;;;5021258;28;20266;-90
2022/06/02 02:58:44;;;;;;;;;;;10.50;60.90;;;;;;5031045;28;19921;-90
2022/06/02 03:01:28;;;;;;;;;;;10.50;60.90;;;;;;5017234;28;19940;-89
2022/06/02 03:04:19;;;;;;;;;;;10.50;61.00;;;;;;5013230;28;20013;-90
2022/06/02 03:06:47;;;;;;;;;;;10.40;61.20;;;;;;5027037;28;20027;-90
2022/06/02 03:09:18;;;;;;;;;;;10.40;61.30;;;;;;5015279;28;20001;-90
2022/06/02 03:11:52;;;;;;;;;;;10.40;61.30;;;;;;5017336;28;19913;-89
2022/06/02 03:14:24;;;;;;;;;;;10.40;61.30;;;;;;5016501;28;19924;-89
2022/06/02 03:16:54;;;;;;;;;;;10.40;61.30;;;;;;5034815;28;19953;-89
2022/06/02 03:19:42;;;;;;;;;;;10.40;61.50;;;;;;5017375;28;19961;-90
2022/06/02 03:22:29;;;;;;;;;;;10.40;61.70;;;;;;5012703;28;20377;-89
2022/06/02 03:25:01;;;;;;;;;;;10.40;61.60;;;;;;5035059;28;19917;-90
2022/06/02 03:27:34;;;;;;;;;;;10.40;61.80;;;;;;5021651;28;19921;-90
2022/06/02 03:30:09;;;;;;;;;;;10.40;61.80;;;;;;5020789;28;19917;-89
2022/06/02 03:32:50;;;;;;;;;;;10.50;61.80;;;;;;5018237;28;19928;-89
2022/06/02 03:35:24;;;;;;;;;;;10.50;61.90;;;;;;5020262;28;19917;-89
2022/06/02 03:37:56;;;;;;;;;;;10.40;62.10;;;;;;5021927;28;19925;-89
2022/06/02 03:40:30;;;;;;;;;;;10.50;62.30;;;;;;5041090;28;19975;-90
2022/06/02 03:42:55;;;;;;;;;;;10.60;62.40;;;;;;5035479;28;19921;-89
2022/06/02 03:45:30;;;;;;;;;;;10.70;62.70;;;;;;5019831;28;19927;-90
2022/06/02 03:48:21;;;;;;;;;;;10.80;62.70;;;;;;5022355;28;19941;-90
2022/06/02 03:50:47;;;;;;;;;;;10.90;63.00;;;;;;5039319;28;19967;-90
2022/06/02 03:53:29;;;;;;;;;;;11.00;63.30;;;;;;5020128;28;20289;-89
2022/06/02 03:56:13;;;;;;;;;;;11.20;63.30;;;;;;5009901;28;19929;-90
2022/06/02 03:58:46;;;;;;;;;;;11.30;63.40;;;;;;5017191;28;19935;-89
2022/06/02 04:01:16;;;;;;;;;;;11.30;63.50;;;;;;5039019;28;20007;-90
2022/06/02 04:04:08;;;;;;;;;;;11.50;63.50;;;;;;5021048;28;19964;-89
2022/06/02 04:06:52;;;;;;;;;;;11.60;63.50;;;;;;5038548;28;20349;-90
2022/06/02 04:09:30;;;;;;;;;;;11.80;63.70;;;;;;5018876;28;19971;-90
2022/06/02 04:14:58;;;;;;;;;;;12.00;63.80;;;;;;5037619;28;20006;-90
2022/06/02 04:17:40;;;;;;;;;;;12.10;64.00;;;;;;5036943;28;19972;-90
2022/06/02 04:20:34;;;;;;;;;;;12.20;64.10;;;;;;5020774;28;20418;-90
2022/06/02 04:23:19;;;;;;;;;;;12.40;64.20;;;;;;5021063;28;19921;-90
2022/06/02 04:25:44;;;;;;;;;;;12.60;64.30;;;;;;5053430;28;20642;-90
2022/06/02 04:28:13;;;;;;;;;;;12.70;64.40;;;;;;5037443;28;19919;-89
2022/06/02 04:30:57;;;;;;;;;;;12.90;64.50;;;;;;5020589;28;19913;-89
2022/06/02 04:33:23;;;;;;;;;;;13.10;64.60;;;;;;5046688;28;19917;-90
2022/06/02 04:36:10;;;;;;;;;;;13.20;64.60;;;;;;5020844;28;19917;-90
2022/06/02 04:38:49;;;;;;;;;;;13.40;64.70;;;;;;5019316;28;19931;-90
2022/06/02 04:41:22;;;;;;;;;;;13.50;65.10;;;;;;5037627;28;19967;-89
2022/06/02 04:44:07;;;;;;;;;;;13.70;65.50;;;;;;5020127;28;20016;-89
2022/06/02 04:46:51;;;;;;;;;;;14.00;66.20;;;;;;5020801;28;19939;-91
2022/06/02 04:49:32;;;;;;;;;;;14.40;66.60;;;;;;5037697;28;20269;-89
2022/06/02 04:52:03;;;;;;;;;;;14.80;67.80;;;;;;5025858;28;20338;-90
2022/06/02 04:54:38;;;;;;;;;;;15.40;69.40;;;;;;5035432;28;19924;-91
2022/06/02 04:57:18;;;;;;;;;;;16.10;70.40;;;;;;5023011;28;20384;-89
2022/06/02 04:59:53;;;;;;;;;;;16.70;70.90;;;;;;5044207;28;20019;-89
2022/06/02 05:02:26;;;;;;;;;;;17.40;71.10;;;;;;5024491;28;20575;-91
2022/06/02 05:04:57;;;;;;;;;;;18.00;70.60;;;;;;5040236;28;19913;-91
2022/06/02 05:07:29;;;;;;;;;;;18.60;70.00;;;;;;5024385;28;20055;-90
2022/06/02 05:09:58;;;;;;;;;;;19.20;70.10;;;;;;5024427;28;19913;-91
2022/06/02 05:12:45;;;;;;;;;;;19.70;68.80;;;;;;5041680;28;20131;-90
2022/06/02 05:15:33;;;;;;;;;;;20.00;68.20;;;;;;5041351;28;19924;-91
2022/06/02 05:18:01;;;;;;;;;;;20.30;67.00;;;;;;5041100;28;19921;-91
2022/06/02 05:20:45;;;;;;;;;;;20.30;66.60;;;;;;5023009;28;19913;-91
2022/06/02 05:23:30;;;;;;;;;;;20.30;66.10;;;;;;5021841;28;20023;-90
2022/06/02 05:26:11;;;;;;;;;;;20.20;65.90;;;;;;5022039;28;19967;-90
2022/06/02 05:28:48;;;;;;;;;;;20.20;66.20;;;;;;5038988;28;19917;-90
2022/06/02 05:31:29;;;;;;;;;;;20.20;65.90;;;;;;5020345;28;19996;-89
2022/06/02 05:34:18;;;;;;;;;;;20.20;65.30;;;;;;5038440;28;20024;-90
2022/06/02 05:36:50;;;;;;;;;;;20.20;64.80;;;;;;5039605;28;20369;-90
2022/06/02 05:39:21;;;;;;;;;;;20.20;65.00;;;;;;5039506;28;20092;-90
2022/06/02 05:42:05;;;;;;;;;;;20.20;64.80;;;;;;5023270;28;19913;-90
2022/06/02 05:44:30;;;;;;;;;;;20.30;65.50;;;;;;5022640;28;19967;-91
2022/06/02 05:47:15;;;;;;;;;;;20.40;66.10;;;;;;5038035;28;19917;-90
2022/06/02 05:49:40;;;;;;;;;;;20.60;66.90;;;;;;5029506;28;20015;-91
2022/06/02 05:52:14;;;;;;;;;;;20.80;67.30;;;;;;5038471;28;19989;-91
2022/06/02 05:54:45;;;;;;;;;;;21.10;67.30;;;;;;5037832;28;19917;-91
2022/06/02 05:57:11;;;;;;;;;;;21.20;67.20;;;;;;5020085;28;19921;-91
2022/06/02 05:59:42;;;;;;;;;;;21.40;67.20;;;;;;5021365;28;19917;-91
2022/06/02 06:02:23;;;;;;;;;;;21.60;67.50;;;;;;5020238;28;19913;-91
2022/06/02 06:05:01;;;;;;;;;;;21.90;68.30;;;;;;5020721;28;19928;-91
2022/06/02 06:07:43;;;;;;;;;;;22.30;68.90;;;;;;5038723;28;20332;-91
2022/06/02 06:10:24;;;;;;;;;;;22.80;70.40;;;;;;5020927;28;19971;-91
2022/06/02 06:12:59;;;;;;;;;;;23.60;71.80;;;;;;5038100;28;19951;-90
2022/06/02 06:15:27;;;;;;;;;;;24.20;70.40;;;;;;5022134;28;19925;-90
2022/06/02 06:17:59;;;;;;;;;;;24.50;68.50;;;;;;5041697;28;19924;-91
2022/06/02 06:20:38;;;;;;;;;;;24.70;67.50;;;;;;5004470;28;19982;-91
2022/06/02 06:23:18;;;;;;;;;;;24.70;66.50;;;;;;5004520;28;19921;-91
2022/06/02 06:25:54;;;;;;;;;;;24.60;66.00;;;;;;5036916;28;19998;-91
2022/06/02 06:28:22;;;;;;;;;;;24.70;66.40;;;;;;5037475;28;19922;-91
2022/06/02 06:31:04;;;;;;;;;;;24.70;66.30;;;;;;5036818;28;19928;-91
2022/06/02 06:33:43;;;;;;;;;;;24.70;65.00;;;;;;5019208;28;19918;-91
2022/06/02 06:36:18;;;;;;;;;;;24.50;64.20;;;;;;5036525;28;19925;-91
2022/06/02 06:38:46;;;;;;;;;;;24.40;64.20;;;;;;5018210;28;19949;-91
2022/06/02 06:41:12;;;;;;;;;;;24.30;64.30;;;;;;5018080;28;19929;-91
2022/06/02 06:44:01;;;;;;;;;;;24.30;64.20;;;;;;5030886;28;19921;-91
2022/06/02 06:46:36;;;;;;;;;;;24.20;64.70;;;;;;5035937;28;19924;-91
2022/06/02 06:49:11;;;;;;;;;;;24.30;66.20;;;;;;5018026;28;20412;-91
2022/06/02 06:51:56;;;;;;;;;;;24.80;70.10;;;;;;5000094;28;20284;-91
2022/06/02 06:54:40;;;;;;;;;;;25.30;70.10;;;;;;5035738;28;20369;-89
2022/06/02 06:57:29;;;;;;;;;;;26.00;71.90;;;;;;5020915;28;19926;-89
2022/06/02 07:00:02;;;;;;;;;;;26.90;73.70;;;;;;5010909;28;19917;-90
2022/06/02 07:02:51;;;;;;;;;;;27.80;71.90;;;;;;5016667;28;19921;-91
2022/06/02 07:05:20;;;;;;;;;;;28.20;67.90;;;;;;5031343;28;19925;-89
2022/06/02 07:07:53;;;;;;;;;;;28.10;66.00;;;;;;5034889;28;19917;-89
2022/06/02 07:10:26;;;;;;;;;;;28.20;68.00;;;;;;5016906;28;19935;-90
2022/06/02 07:12:56;;;;;;;;;;;28.60;69.50;;;;;;5032665;28;19917;-90
2022/06/02 07:15:41;;;;;;;;;;;29.30;70.90;;;;;;5035693;28;19925;-90
2022/06/02 07:18:22;;;;;;;;;;;30.00;71.40;;;;;;5035492;28;19921;-90
2022/06/02 07:21:02;;;;;;;;;;;30.70;70.60;;;;;;5035537;28;19955;-90
2022/06/02 07:23:46;;;;;;;;;;;31.10;68.60;;;;;;5034547;28;19925;-91
2022/06/02 07:26:11;;;;;;;;;;;31.10;66.60;;;;;;5034347;28;19925;-91
2022/06/02 07:28:46;;;;;;;;;;;31.20;68.00;;;;;;5034840;28;19991;-90
2022/06/02 07:31:24;;;;;;;;;;;31.50;68.50;;;;;;5035287;28;19921;-90
2022/06/02 07:33:49;;;;;;;;;;;32.00;68.90;;;;;;5016050;28;19917;-90
2022/06/02 07:36:27;;;;;;;;;;;32.50;69.50;;;;;;5036728;28;19932;-90
2022/06/02 07:39:07;;;;;;;;;;;33.10;69.80;;;;;;5035848;28;20388;-89
2022/06/02 07:41:48;;;;;;;;;;;33.70;69.20;;;;;;5035301;28;19939;-89
2022/06/02 07:44:32;;;;;;;;;;;34.30;68.00;;;;;;5033533;28;19917;-89
2022/06/02 07:47:07;;;;;;;;;;;34.80;67.10;;;;;;5035667;28;19917;-89
2022/06/02 07:49:51;;;;;;;;;;;35.30;66.70;;;;;;5034391;28;19953;-90
2022/06/02 07:52:35;;;;;;;;;;;35.80;66.10;;;;;;5014615;28;20734;-91
2022/06/02 07:55:19;;;;;;;;;;;35.80;62.40;;;;;;5016795;28;20376;-90
2022/06/02 07:57:45;;;;;;;;;;;35.70;62.50;;;;;;5035440;28;19947;-89
2022/06/02 08:00:13;;;;;;;;;;;35.80;63.50;;;;;;5034956;28;19917;-90
2022/06/02 08:02:45;;;;;;;;;;;36.10;65.00;;;;;;5016351;28;20377;-89
2022/06/02 08:05:32;;;;;;;;;;;36.50;65.10;;;;;;5035292;28;19917;-90
2022/06/02 08:08:01;;;;;;;;;;;36.80;62.80;;;;;;5034342;28;19913;-90
2022/06/02 08:10:29;;;;;;;;;;;36.80;60.10;;;;;;5015824;28;19924;-90
2022/06/02 08:13:02;;;;;;;;;;;37.10;59.70;;;;;;5017999;28;19917;-90
2022/06/02 08:15:34;;;;;;;;;;;37.30;56.60;;;;;;5038373;28;19921;-90
2022/06/02 08:18:18;;;;;;;;;;;37.40;57.10;;;;;;5028156;28;19956;-90
2022/06/02 08:21:15;;;;;;;;;;;37.20;55.20;;;;;;5037351;28;19920;-89
2022/06/02 08:23:43;;;;;;;;;;;37.00;56.60;;;;;;5021763;28;19917;-89
2022/06/02 08:26:11;;;;;;;;;;;37.00;57.10;;;;;;5036278;28;19921;-89
2022/06/02 08:28:40;;;;;;;;;;;37.30;57.40;;;;;;5019402;28;19917;-90
2022/06/02 08:31:10;;;;;;;;;;;37.50;52.10;;;;;;5020459;28;19956;-90
2022/06/02 08:33:46;;;;;;;;;;;37.60;52.80;;;;;;5035380;28;19921;-91
2022/06/02 08:36:34;;;;;;;;;;;37.80;53.30;;;;;;5037842;28;19989;-90
2022/06/02 08:39:18;;;;;;;;;;;37.80;49.70;;;;;;5037106;28;19917;-90
2022/06/02 08:42:02;;;;;;;;;;;37.50;51.20;;;;;;5037000;28;20393;-90
2022/06/02 08:44:46;;;;;;;;;;;37.70;52.20;;;;;;5018155;28;19999;-91
2022/06/02 08:47:30;;;;;;;;;;;38.00;52.10;;;;;;5021169;28;19944;-90
2022/06/02 08:50:11;;;;;;;;;;;38.40;52.50;;;;;;5037198;28;19999;-90
2022/06/02 08:52:52;;;;;;;;;;;38.70;44.90;;;;;;5036171;28;19952;-89
2022/06/02 08:55:26;;;;;;;;;;;38.70;46.00;;;;;;5038298;28;19925;-90
2022/06/02 08:58:18;;;;;;;;;;;38.60;45.30;;;;;;5035570;28;19909;-90
2022/06/02 09:00:53;;;;;;;;;;;38.80;47.40;;;;;;5036310;28;20293;-90
2022/06/02 09:03:38;;;;;;;;;;;39.20;46.50;;;;;;5023093;28;20393;-91
2022/06/02 09:06:03;;;;;;;;;;;39.40;46.80;;;;;;5034923;28;19970;-90
2022/06/02 09:08:39;;;;;;;;;;;39.60;45.40;;;;;;5036609;28;19913;-91
2022/06/02 09:11:25;;;;;;;;;;;39.90;46.10;;;;;;5019495;28;19963;-91
2022/06/02 09:13:59;;;;;;;;;;;40.30;44.20;;;;;;5019807;28;20373;-91
2022/06/02 09:16:39;;;;;;;;;;;40.60;44.60;;;;;;5036193;28;19925;-90
2022/06/02 09:19:14;;;;;;;;;;;41.00;44.10;;;;;;5016575;28;20448;-91
2022/06/02 09:21:51;;;;;;;;;;;41.30;43.00;;;;;;5001586;28;20004;-91
2022/06/02 09:24:27;;;;;;;;;;;41.50;39.30;;;;;;5027518;28;19928;-91
2022/06/02 09:27:11;;;;;;;;;;;41.20;38.90;;;;;;5035222;28;19917;-90
2022/06/02 09:30:06;;;;;;;;;;;40.80;39.00;;;;;;5035007;28;19920;-90
2022/06/02 09:32:56;;;;;;;;;;;40.90;38.10;;;;;;4947045;28;19922;-89
2022/06/02 09:35:24;;;;;;;;;;;41.20;35.90;;;;;;5035690;28;19932;-90
2022/06/02 09:38:13;;;;;;;;;;;41.40;34.10;;;;;;5024892;28;19917;-91
2022/06/02 09:40:51;;;;;;;;;;;41.20;35.10;;;;;;5034626;28;19913;-89
2022/06/02 09:43:36;;;;;;;;;;;41.30;35.60;;;;;;5027625;28;19921;-90
2022/06/02 09:46:21;;;;;;;;;;;41.60;34.50;;;;;;5036367;28;19917;-87
2022/06/02 09:48:50;;;;;;;;;;;41.50;27.40;;;;;;5032503;28;19913;-88
2022/06/02 09:51:34;;;;;;;;;;;41.70;26.40;;;;;;5033127;28;20447;-88
2022/06/02 09:54:18;;;;;;;;;;;41.90;28.40;;;;;;5017032;28;19913;-88
2022/06/02 09:56:54;;;;;;;;;;;42.10;27.60;;;;;;5033847;28;20003;-88
2022/06/02 09:59:26;;;;;;;;;;;42.00;27.40;;;;;;5032921;28;19913;-88
2022/06/02 10:02:10;;;;;;;;;;;41.80;26.80;;;;;;5034752;28;20329;-89
2022/06/02 10:04:51;;;;;;;;;;;41.80;26.00;;;;;;5018356;28;19920;-89
2022/06/02 10:07:26;;;;;;;;;;;41.30;25.30;;;;;;5015781;28;19917;-88
2022/06/02 10:10:10;;;;;;;;;;;40.90;25.20;;;;;;5034301;28;19909;-88
2022/06/02 10:15:19;;;;;;;;;;;40.90;23.50;;;;;;5018672;28;19925;-88
2022/06/02 10:17:56;;;;;;;;;;;40.70;23.00;;;;;;5016670;28;20381;-88
2022/06/02 10:20:45;;;;;;;;;;;40.80;22.20;;;;;;5035243;28;19932;-88
2022/06/02 10:23:26;;;;;;;;;;;41.10;22.40;;;;;;4984980;28;19917;-87
2022/06/02 10:26:15;;;;;;;;;;;41.40;22.00;;;;;;5015868;28;20375;-88
2022/06/02 10:28:50;;;;;;;;;;;41.80;21.00;;;;;;5032194;28;19914;-87
2022/06/02 10:31:41;;;;;;;;;;;42.10;18.40;;;;;;5033375;28;19913;-88
2022/06/02 10:34:28;;;;;;;;;;;42.10;18.80;;;;;;4995339;28;19913;-87
2022/06/02 10:37:14;;;;;;;;;;;42.20;18.70;;;;;;5033872;28;19928;-89
2022/06/02 10:39:52;;;;;;;;;;;41.60;17.80;;;;;;5034066;28;19963;-87
2022/06/02 10:42:29;;;;;;;;;;;41.20;18.40;;;;;;5032735;28;21057;-87
2022/06/02 10:45:13;;;;;;;;;;;41.40;18.00;;;;;;5034913;28;19909;-88
2022/06/02 10:47:53;;;;;;;;;;;41.70;17.70;;;;;;5033664;28;19913;-88
2022/06/02 10:50:19;;;;;;;;;;;42.10;17.10;;;;;;5027250;28;20246;-88
2022/06/02 10:52:47;;;;;;;;;;;42.30;17.20;;;;;;5027321;28;19986;-88
2022/06/02 10:55:27;;;;;;;;;;;42.50;16.80;;;;;;5032986;28;19944;-88
2022/06/02 10:58:11;;;;;;;;;;;42.70;16.50;;;;;;5038226;28;20656;-87
2022/06/02 11:00:58;;;;;;;;;;;42.00;16.10;;;;;;5032833;28;19917;-88
2022/06/02 11:03:42;;;;;;;;;;;41.20;16.70;;;;;;5030912;28;20000;-87
2022/06/02 11:06:10;;;;;;;;;;;40.80;17.40;;;;;;5014926;28;20007;-88
2022/06/02 11:08:50;;;;;;;;;;;40.80;17.50;;;;;;5016518;28;19945;-88
2022/06/02 11:11:51;;;;;;;;;;;41.00;17.60;;;;;;5032016;28;20425;-87
2022/06/02 11:14:35;;;;;;;;;;;41.40;17.30;;;;;;4937785;29;19986;-88
2022/06/02 11:17:46;;;;;;;;;;;41.70;17.00;;;;;;5033952;28;19925;-88
2022/06/02 11:20:24;;;;;;;;;;;41.20;16.60;;;;;;5043565;28;19952;-88
2022/06/02 11:23:09;;;;;;;;;;;41.00;16.30;;;;;;5041221;28;19913;-86
2022/06/02 11:26:01;;;;;;;;;;;40.80;15.60;;;;;;5026637;28;19923;-87
2022/06/02 11:28:45;;;;;;;;;;;40.90;15.90;;;;;;4980512;28;20284;-88
2022/06/02 11:31:29;;;;;;;;;;;40.80;15.30;;;;;;5017953;28;19917;-89
2022/06/02 11:34:05;;;;;;;;;;;40.70;14.50;;;;;;5020979;28;19967;-89
2022/06/02 11:36:45;;;;;;;;;;;40.40;14.50;;;;;;5034980;28;19914;-87
2022/06/02 11:39:21;;;;;;;;;;;40.00;15.50;;;;;;5015235;28;19948;-88
2022/06/02 11:42:03;;;;;;;;;;;40.10;16.10;;;;;;5027522;28;19921;-88
2022/06/02 11:44:35;;;;;;;;;;;40.30;15.60;;;;;;5025160;28;20015;-88
2022/06/02 11:47:15;;;;;;;;;;;40.70;15.60;;;;;;5036356;28;20320;-87
2022/06/02 11:49:43;;;;;;;;;;;41.00;15.70;;;;;;5038892;28;20003;-89
2022/06/02 11:52:28;;;;;;;;;;;41.30;15.90;;;;;;5034559;28;19918;-88
2022/06/02 11:55:17;;;;;;;;;;;41.60;15.90;;;;;;5029425;28;19920;-89
2022/06/02 11:57:47;;;;;;;;;;;41.80;15.50;;;;;;5040965;28;19924;-91
2022/06/02 12:00:46;;;;;;;;;;;42.00;15.60;;;;;;5042291;28;19949;-91
2022/06/02 12:03:47;;;;;;;;;;;42.10;15.10;;;;;;5040554;28;20295;-90
2022/06/02 12:06:13;;;;;;;;;;;42.10;15.00;;;;;;4941585;29;19923;-91
2022/06/02 12:08:52;;;;;;;;;;;42.20;15.10;;;;;;5003393;28;19920;-90
2022/06/02 12:11:33;;;;;;;;;;;42.50;15.50;;;;;;5022516;28;20354;-91
2022/06/02 12:14:08;;;;;;;;;;;42.70;15.40;;;;;;5007284;28;19925;-91
2022/06/02 12:16:36;;;;;;;;;;;42.80;15.30;;;;;;5024157;28;19921;-92
2022/06/02 12:19:12;;;;;;;;;;;42.80;14.70;;;;;;5006666;28;19920;-91
2022/06/02 12:21:43;;;;;;;;;;;42.80;14.40;;;;;;5025622;28;19914;-89
2022/06/02 12:24:08;;;;;;;;;;;42.80;14.50;;;;;;5033042;28;19924;-90
2022/06/02 12:27:00;;;;;;;;;;;42.90;14.70;;;;;;5045769;28;20495;-91
2022/06/02 12:29:28;;;;;;;;;;;43.00;14.90;;;;;;5041455;28;19909;-89
2022/06/02 12:32:00;;;;;;;;;;;43.20;14.60;;;;;;5039151;28;19917;-89
2022/06/02 12:34:51;;;;;;;;;;;43.10;14.60;;;;;;5040258;28;20296;-91
2022/06/02 12:37:36;;;;;;;;;;;43.10;14.70;;;;;;5038670;28;19917;-91
2022/06/02 12:40:07;;;;;;;;;;;42.40;13.80;;;;;;5021956;28;19921;-90
2022/06/02 12:43:11;;;;;;;;;;;41.50;14.60;;;;;;5038628;28;19913;-92
2022/06/02 12:45:55;;;;;;;;;;;41.30;14.80;;;;;;4944890;29;19942;-90
2022/06/02 12:48:36;;;;;;;;;;;41.30;15.10;;;;;;4959896;29;19930;-88
2022/06/02 12:51:26;;;;;;;;;;;41.30;15.60;;;;;;4998882;28;20007;-90
2022/06/02 12:54:01;;;;;;;;;;;41.40;15.70;;;;;;5048333;28;20302;-90
2022/06/02 12:56:45;;;;;;;;;;;41.40;15.50;;;;;;5039990;28;19952;-89
2022/06/02 12:59:33;;;;;;;;;;;41.30;14.70;;;;;;5021439;28;19913;-91
2022/06/02 13:02:13;;;;;;;;;;;41.20;15.20;;;;;;5021300;28;19956;-89
2022/06/02 13:04:58;;;;;;;;;;;41.30;15.10;;;;;;5029806;28;20300;-91
2022/06/02 13:07:50;;;;;;;;;;;41.50;15.20;;;;;;5039768;28;19987;-90
2022/06/02 13:10:25;;;;;;;;;;;41.70;15.20;;;;;;5023394;28;19917;-91
2022/06/02 13:13:01;;;;;;;;;;;41.30;15.40;;;;;;5024293;28;19960;-90
2022/06/02 13:15:26;;;;;;;;;;;41.10;15.80;;;;;;5023657;28;20019;-91
2022/06/02 13:17:52;;;;;;;;;;;41.30;15.40;;;;;;5040448;28;19952;-90
2022/06/02 13:20:44;;;;;;;;;;;41.20;15.60;;;;;;5021418;28;19972;-90
2022/06/02 13:23:28;;;;;;;;;;;41.30;15.70;;;;;;4947653;28;20019;-90
2022/06/02 13:25:57;;;;;;;;;;;41.10;15.00;;;;;;5020690;28;19926;-91
2022/06/02 13:28:39;;;;;;;;;;;40.40;15.00;;;;;;5019517;28;19920;-89
2022/06/02 13:31:27;;;;;;;;;;;40.20;15.30;;;;;;5044913;28;19943;-89
2022/06/02 13:33:59;;;;;;;;;;;39.80;15.90;;;;;;5021816;28;20381;-89
2022/06/02 13:36:28;;;;;;;;;;;40.00;16.40;;;;;;5035150;28;19920;-89
2022/06/02 13:38:53;;;;;;;;;;;40.30;16.20;;;;;;5034534;28;20034;-90
2022/06/02 13:41:18;;;;;;;;;;;40.00;15.90;;;;;;5035132;28;19965;-89
2022/06/02 13:43:47;;;;;;;;;;;39.70;16.20;;;;;;5035868;28;19920;-89
2022/06/02 13:46:32;;;;;;;;;;;39.80;15.70;;;;;;5040728;28;19983;-90
2022/06/02 13:49:17;;;;;;;;;;;38.80;16.10;;;;;;4988759;28;20000;-88
2022/06/02 13:52:02;;;;;;;;;;;37.80;16.70;;;;;;5023621;28;19913;-89
2022/06/02 13:57:51;;;;;;;;;;;38.30;16.80;;;;;;4998350;28;19921;-90
2022/06/02 14:00:20;;;;;;;;;;;38.70;16.70;;;;;;5034149;28;20117;-89
2022/06/02 14:03:00;;;;;;;;;;;39.30;16.50;;;;;;5024723;28;19917;-89
2022/06/02 14:05:44;;;;;;;;;;;39.70;16.20;;;;;;5021913;28;19940;-89
2022/06/02 14:08:18;;;;;;;;;;;40.00;16.10;;;;;;5018128;28;19965;-90
2022/06/02 14:11:16;;;;;;;;;;;40.30;15.80;;;;;;5034678;28;19968;-90
2022/06/02 14:13:55;;;;;;;;;;;39.80;16.20;;;;;;4984142;28;20312;-90
2022/06/02 14:16:32;;;;;;;;;;;39.40;16.30;;;;;;5034349;28;19971;-90
2022/06/02 14:19:05;;;;;;;;;;;38.90;16.50;;;;;;5034068;28;19914;-89
2022/06/02 14:21:31;;;;;;;;;;;38.60;16.80;;;;;;5017817;28;19913;-89
2022/06/02 14:24:04;;;;;;;;;;;37.90;17.00;;;;;;5034781;28;20702;-89
2022/06/02 14:26:39;;;;;;;;;;;37.10;17.10;;;;;;5035500;28;19925;-90
2022/06/02 14:29:17;;;;;;;;;;;36.20;17.90;;;;;;5021308;28;19917;-89
2022/06/02 14:31:56;;;;;;;;;;;35.40;18.50;;;;;;5041005;28;20439;-88
2022/06/02 14:34:38;;;;;;;;;;;34.80;19.00;;;;;;5013092;28;19928;-89
2022/06/02 14:37:26;;;;;;;;;;;34.40;19.40;;;;;;5024409;28;19921;-89
2022/06/02 14:40:06;;;;;;;;;;;33.80;20.00;;;;;;5038458;28;20340;-89
2022/06/02 14:45:19;;;;;;;;;;;32.50;20.70;;;;;;5035057;28;19928;-89
2022/06/02 14:47:54;;;;;;;;;;;31.80;21.30;;;;;;5043609;28;19999;-90
2022/06/02 14:50:30;;;;;;;;;;;31.20;21.70;;;;;;5035990;28;19917;-88
2022/06/02 14:53:05;;;;;;;;;;;30.70;22.40;;;;;;5028330;28;19936;-89
2022/06/02 14:55:36;;;;;;;;;;;30.20;22.70;;;;;;5016544;28;19917;-89
2022/06/02 14:58:06;;;;;;;;;;;29.80;23.10;;;;;;5034657;28;20365;-89
2022/06/02 15:00:38;;;;;;;;;;;29.40;23.50;;;;;;5037757;28;19920;-89
2022/06/02 15:03:22;;;;;;;;;;;29.10;24.00;;;;;;5035910;28;19921;-88
2022/06/02 15:05:51;;;;;;;;;;;28.90;24.30;;;;;;5030536;28;20575;-88
2022/06/02 15:08:20;;;;;;;;;;;28.70;24.40;;;;;;5019077;28;19925;-88
2022/06/02 15:10:56;;;;;;;;;;;28.50;24.50;;;;;;5018028;28;19939;-89
2022/06/02 15:13:27;;;;;;;;;;;28.40;24.70;;;;;;5033650;28;20483;-88
2022/06/02 15:15:53;;;;;;;;;;;28.20;24.80;;;;;;5039013;28;19941;-89
2022/06/02 15:18:37;;;;;;;;;;;28.10;25.20;;;;;;5018250;28;20374;-89
2022/06/02 15:21:10;;;;;;;;;;;27.90;25.10;;;;;;4997229;28;19933;-89
2022/06/02 15:23:43;;;;;;;;;;;27.70;25.40;;;;;;5010988;28;19913;-92
2022/06/02 15:26:33;;;;;;;;;;;27.50;25.70;;;;;;5020173;28;19975;-90
2022/06/02 15:29:15;;;;;;;;;;;27.30;25.90;;;;;;5012875;28;19964;-90